Time;durP1;ratioP1;P1;durP2;ratioP2;P2;SDS_P1;SDS_P2;PMS_P1;PMS_P2;Temp;Humidity;BMP_temperature;BMP_pressure;BME280_temperature;BME280_humidity;BME280_pressure;Samples;Min_cycle;Max_cycle;Signal;HPM_P1;HPM_P2
2022/04/05 00:00:24;;;;;;;15.43;11.83;;;;;;;1.77;78.89;98370.37;1541942;91;25956;-68
2022/04/05 00:02:53;;;;;;;17.23;11.57;;;;;;;1.75;79.31;98373.89;1546194;91;25977;-68
2022/04/05 00:05:19;;;;;;;15.53;11.83;;;;;;;1.74;77.38;98361.63;1568356;88;25867;-69
2022/04/05 00:07:45;;;;;;;16.27;12.78;;;;;;;1.72;79.35;98363.29;1583632;89;25879;-69
2022/04/05 00:10:14;;;;;;;14.83;11.90;;;;;;;1.70;79.29;98368.11;1592130;88;25753;-69
2022/04/05 00:12:40;;;;;;;17.48;12.55;;;;;;;1.68;81.61;98350.30;1572374;90;25904;-70
2022/04/05 00:15:10;;;;;;;15.60;12.68;;;;;;;1.66;80.78;98347.92;1577584;90;27421;-71
2022/04/05 00:17:38;;;;;;;19.52;13.50;;;;;;;1.65;79.73;98337.03;1564542;90;33097;-71
2022/04/05 00:20:07;;;;;;;18.62;15.20;;;;;;;1.62;82.66;98344.84;1590113;88;25918;-72
2022/04/05 00:22:36;;;;;;;19.07;13.72;;;;;;;1.58;80.99;98325.96;1592042;88;32418;-72
2022/04/05 00:25:05;;;;;;;18.67;14.80;;;;;;;1.56;81.74;98338.80;1585668;88;25512;-72
2022/04/05 00:27:32;;;;;;;19.42;14.50;;;;;;;1.53;80.82;98332.72;1566876;90;27371;-73
2022/04/05 00:30:00;;;;;;;18.85;14.80;;;;;;;1.48;81.11;98330.16;1568063;90;25742;-73
2022/04/05 00:32:27;;;;;;;18.82;15.80;;;;;;;1.44;82.55;98329.97;1573980;90;25861;-73
2022/04/05 00:34:57;;;;;;;24.90;15.95;;;;;;;1.40;82.11;98331.66;1570973;90;25637;-73
2022/04/05 00:37:25;;;;;;;23.52;15.93;;;;;;;1.38;83.10;98313.05;1584710;88;25885;-73
2022/04/05 00:39:52;;;;;;;19.67;14.03;;;;;;;1.37;83.32;98305.60;1592372;88;28081;-73
2022/04/05 00:42:20;;;;;;;17.30;14.43;;;;;;;1.37;82.47;98310.15;1595630;88;25714;-73
2022/04/05 00:44:48;;;;;;;18.75;13.72;;;;;;;1.38;83.41;98309.05;1577506;89;25852;-72
2022/04/05 00:47:26;;;;;;;17.42;15.32;;;;;;;1.40;85.16;98302.91;1563540;90;25880;-71
2022/04/05 00:49:54;;;;;;;20.27;16.12;;;;;;;1.41;86.14;98323.89;1499073;92;25965;-72
2022/04/05 00:52:23;;;;;;;21.20;16.67;;;;;;;1.44;85.78;98295.88;1556495;90;26394;-72
2022/04/05 00:55:07;;;;;;;23.38;16.67;;;;;;;1.46;85.24;98293.18;1546538;91;25564;-72
2022/04/05 00:57:29;;;;;;;19.00;15.15;;;;;;;1.48;86.20;98289.67;1543853;91;25862;-71
2022/04/05 01:00:00;;;;;;;19.87;15.78;;;;;;;1.51;85.81;98294.16;1560342;91;25644;-71
2022/04/05 01:02:30;;;;;;;17.98;14.30;;;;;;;1.52;84.78;98302.41;1584005;90;25912;-70
2022/04/05 01:04:57;;;;;;;17.62;14.87;;;;;;;1.54;86.09;98297.01;1581841;90;27347;-70
2022/04/05 01:07:24;;;;;;;17.35;15.08;;;;;;;1.54;85.91;98274.36;1585119;90;25600;-70
2022/04/05 01:09:53;;;;;;;18.73;15.88;;;;;;;1.55;86.19;98278.61;1562679;91;25858;-71
2022/04/05 01:12:21;;;;;;;19.85;14.38;;;;;;;1.54;85.47;98277.58;1596169;89;25797;-70
2022/04/05 01:14:49;;;;;;;16.60;13.72;;;;;;;1.56;85.12;98282.06;1597671;89;25512;-70
2022/04/05 01:17:16;;;;;;;18.52;14.13;;;;;;;1.54;86.33;98269.58;1586479;90;28015;-70
2022/04/05 01:19:43;;;;;;;16.95;14.05;;;;;;;1.52;87.25;98265.10;1602944;89;25738;-70
2022/04/05 01:22:10;;;;;;;17.48;15.25;;;;;;;1.47;86.49;98269.98;1594909;89;25537;-70
2022/04/05 01:24:37;;;;;;;19.25;14.70;;;;;;;1.44;85.99;98266.58;1588555;89;25819;-70
2022/04/05 01:27:08;;;;;;;18.35;16.15;;;;;;;1.41;87.67;98265.84;1565941;91;25939;-70
2022/04/05 01:29:35;;;;;;;19.02;15.72;;;;;;;1.39;86.75;98254.14;1590506;89;27931;-71
2022/04/05 01:32:06;;;;;;;16.60;14.78;;;;;;;1.41;86.23;98255.95;1564344;91;26556;-70
2022/04/05 01:34:34;;;;;;;17.65;14.85;;;;;;;1.42;86.75;98254.10;1530559;93;25832;-70
2022/04/05 01:37:05;;;;;;;17.23;13.88;;;;;;;1.44;86.40;98254.59;1555455;92;25689;-69
2022/04/05 01:39:35;;;;;;;18.10;14.63;;;;;;;1.45;87.90;98258.29;1542550;92;25832;-69
2022/04/05 01:42:12;;;;;;;14.20;12.28;;;;;;;1.47;88.03;98255.33;1542683;91;27449;-69
2022/04/05 01:44:41;;;;;;;16.52;13.35;;;;;;;1.48;89.14;98242.23;1544595;92;25796;-69
2022/04/05 01:47:11;;;;;;;17.60;14.30;;;;;;;1.49;88.29;98245.94;1536350;92;25527;-69
2022/04/05 01:49:40;;;;;;;17.25;12.85;;;;;;;1.49;89.49;98245.94;1599177;89;25773;-69
2022/04/05 01:52:09;;;;;;;12.75;10.10;;;;;;;1.48;87.28;98240.37;1593098;89;25486;-69
2022/04/05 01:54:36;;;;;;;17.82;14.15;;;;;;;1.46;88.16;98240.42;1561190;91;27418;-70
2022/04/05 01:57:03;;;;;;;19.80;14.45;;;;;;;1.45;87.91;98239.64;1531979;92;25858;-70
2022/04/05 01:59:33;;;;;;;16.35;14.33;;;;;;;1.45;86.97;98222.32;1533383;91;25764;-70
2022/04/05 02:02:09;;;;;;;19.23;14.78;;;;;;;1.47;87.93;98222.02;1550937;92;25632;-70
2022/04/05 02:04:37;;;;;;;17.15;14.93;;;;;;;1.47;88.62;98208.16;1587281;89;25535;-69
2022/04/05 02:07:16;;;;;;;21.05;15.85;;;;;;;1.48;87.92;98217.73;1603194;89;27345;-69
2022/04/05 02:09:43;;;;;;;21.43;16.53;;;;;;;1.52;89.25;98219.25;1585866;89;25685;-68
2022/04/05 02:12:10;;;;;;;17.30;14.85;;;;;;;1.53;88.20;98213.37;1559091;91;25674;-68
2022/04/05 02:14:38;;;;;;;20.50;16.15;;;;;;;1.54;88.60;98216.29;1585301;89;25890;-68
2022/04/05 02:17:06;;;;;;;19.87;15.95;;;;;;;1.56;89.19;98211.44;1561155;91;25535;-68
2022/04/05 02:19:34;;;;;;;22.35;17.20;;;;;;;1.58;89.21;98221.25;1533904;93;27410;-68
2022/04/05 02:22:01;;;;;;;20.27;16.73;;;;;;;1.58;88.43;98196.72;1597289;89;25691;-68
2022/04/05 02:24:27;;;;;;;19.62;16.17;;;;;;;1.60;88.79;98208.41;1588051;89;25420;-69
2022/04/05 02:26:53;;;;;;;19.87;16.52;;;;;;;1.61;89.31;98207.33;1594064;89;25612;-70
2022/04/05 02:29:20;;;;;;;23.22;18.20;;;;;;;1.63;89.89;98211.81;1590051;89;25430;-70
2022/04/05 02:31:47;;;;;;;21.45;16.65;;;;;;;1.63;90.23;98190.49;1558562;91;27913;-70
2022/04/05 02:34:14;;;;;;;22.35;17.10;;;;;;;1.65;89.62;98199.78;1549943;92;25556;-70
2022/04/05 02:36:41;;;;;;;22.07;17.55;;;;;;;1.66;89.91;98185.34;1545451;92;25459;-70
2022/04/05 02:39:08;;;;;;;20.90;16.77;;;;;;;1.68;90.38;98189.05;1536813;91;26361;-70
2022/04/05 02:41:34;;;;;;;24.02;18.85;;;;;;;1.70;91.03;98191.41;1540645;91;25929;-70
2022/04/05 02:44:00;;;;;;;24.23;18.75;;;;;;;1.71;89.76;98184.45;1586879;90;27360;-70
2022/04/05 02:46:28;;;;;;;22.65;18.15;;;;;;;1.72;90.18;98188.70;1589638;89;25667;-70
2022/04/05 02:48:54;;;;;;;25.05;18.87;;;;;;;1.74;90.92;98185.70;1587171;90;25488;-69
2022/04/05 02:51:23;;;;;;;24.32;18.73;;;;;;;1.74;90.40;98185.70;1598912;89;25654;-70
2022/04/05 02:53:49;;;;;;;22.13;18.87;;;;;;;1.76;89.78;98192.88;1588307;89;25726;-69
2022/04/05 02:56:15;;;;;;;23.20;17.92;;;;;;;1.78;89.32;98194.69;1595991;89;27462;-70
2022/04/05 02:58:43;;;;;;;23.85;18.82;;;;;;;1.80;91.03;98181.84;1584226;90;27174;-70
2022/04/05 03:01:10;;;;;;;22.42;18.15;;;;;;;1.82;89.67;98187.66;1560634;91;25597;-69
2022/04/05 03:03:36;;;;;;;20.12;17.02;;;;;;;1.83;89.44;98181.25;1531852;93;25671;-70
2022/04/05 03:06:03;;;;;;;22.40;17.32;;;;;;;1.85;89.95;98185.17;1559920;91;25845;-69
2022/04/05 03:08:29;;;;;;;19.37;16.48;;;;;;;1.88;90.39;98189.68;1595007;89;27535;-69
2022/04/05 03:10:55;;;;;;;22.82;19.02;;;;;;;1.89;91.31;98189.38;1586455;89;33425;-69
2022/04/05 03:13:21;;;;;;;20.12;17.12;;;;;;;1.92;90.45;98186.09;1595715;89;25706;-69
2022/04/05 03:15:48;;;;;;;22.50;17.67;;;;;;;1.95;90.33;98186.04;1588012;89;25860;-69
2022/04/05 03:18:14;;;;;;;24.10;18.67;;;;;;;1.96;91.12;98195.07;1606363;89;25713;-69
2022/04/05 03:20:40;;;;;;;20.85;16.90;;;;;;;2.00;91.17;98180.58;1595909;89;27445;-69
2022/04/05 03:23:07;;;;;;;22.50;17.82;;;;;;;2.02;90.59;98180.50;1595680;89;25431;-69
2022/04/05 03:25:34;;;;;;;21.07;17.85;;;;;;;2.04;90.26;98170.34;1557915;91;25891;-70
2022/04/05 03:28:02;;;;;;;22.95;18.42;;;;;;;2.08;89.92;98171.05;1598085;89;26297;-70
2022/04/05 03:30:28;;;;;;;23.27;18.27;;;;;;;2.10;90.72;98173.67;1588092;89;25460;-70
2022/04/05 03:32:55;;;;;;;23.22;18.75;;;;;;;2.12;90.24;98166.14;1589023;89;27385;-69
2022/04/05 03:35:21;;;;;;;23.40;18.85;;;;;;;2.15;90.35;98182.09;1591840;89;25929;-69
2022/04/05 03:37:48;;;;;;;23.95;19.90;;;;;;;2.19;90.00;98167.05;1561012;91;25447;-70
2022/04/05 03:40:14;;;;;;;25.43;19.25;;;;;;;2.21;90.03;98172.86;1576971;90;25637;-70
2022/04/05 03:42:41;;;;;;;24.40;19.23;;;;;;;2.22;90.39;98169.89;1561939;90;25712;-70
2022/04/05 03:45:09;;;;;;;24.72;20.35;;;;;;;2.25;90.21;98173.84;1563521;91;27461;-70
2022/04/05 03:47:36;;;;;;;24.98;18.00;;;;;;;2.28;90.78;98177.20;1587983;90;25512;-70
2022/04/05 03:50:03;;;;;;;26.30;20.57;;;;;;;2.32;90.94;98165.41;1586677;90;25605;-70
2022/04/05 03:52:29;;;;;;;24.90;19.25;;;;;;;2.33;91.37;98173.63;1589880;90;25908;-70
2022/04/05 03:54:58;;;;;;;23.57;18.50;;;;;;;2.36;91.34;98173.03;1563968;91;25532;-71
2022/04/05 03:57:24;;;;;;;25.08;19.98;;;;;;;2.37;90.96;98163.94;1537237;93;27362;-70
2022/04/05 03:59:50;;;;;;;26.60;21.52;;;;;;;2.37;90.61;98155.94;1600961;89;25663;-70
2022/04/05 04:02:17;;;;;;;24.72;19.05;;;;;;;2.38;91.17;98166.30;1593777;89;25758;-70
2022/04/05 04:04:43;;;;;;;25.72;20.15;;;;;;;2.41;90.99;98164.89;1591720;89;25644;-71
2022/04/05 04:07:10;;;;;;;27.70;20.05;;;;;;;2.44;90.91;98158.95;1599041;89;25441;-70
2022/04/05 04:09:36;;;;;;;25.90;20.77;;;;;;;2.44;90.59;98154.94;1584609;89;27912;-70
2022/04/05 04:12:04;;;;;;;29.05;22.35;;;;;;;2.48;90.81;98157.22;1591950;89;25730;-70
2022/04/05 04:14:33;;;;;;;26.45;20.85;;;;;;;2.49;90.76;98148.14;1550504;91;25477;-70
2022/04/05 04:17:00;;;;;;;26.37;20.88;;;;;;;2.51;91.16;98151.83;1538311;92;25745;-70
2022/04/05 04:19:26;;;;;;;25.40;20.60;;;;;;;2.55;90.73;98150.89;1563334;91;25521;-70
2022/04/05 04:21:52;;;;;;;26.40;20.65;;;;;;;2.58;90.69;98149.50;1537208;92;27337;-70
2022/04/05 04:24:18;;;;;;;25.80;21.00;;;;;;;2.60;91.82;98155.31;1549995;92;25501;-70
2022/04/05 04:26:44;;;;;;;30.12;21.93;;;;;;;2.63;90.66;98153.92;1589207;89;25848;-70
2022/04/05 04:29:10;;;;;;;27.87;20.90;;;;;;;2.65;90.48;98151.73;1606521;89;25847;-70
2022/04/05 04:31:37;;;;;;;26.00;20.82;;;;;;;2.68;90.04;98152.45;1610283;89;25517;-70
2022/04/05 04:34:03;;;;;;;26.27;21.07;;;;;;;2.70;91.24;98155.03;1586774;89;27491;-70
2022/04/05 04:36:29;;;;;;;28.90;22.32;;;;;;;2.73;90.83;98150.98;1559664;91;25936;-70
2022/04/05 04:38:56;;;;;;;28.80;19.52;;;;;;;2.77;90.20;98162.05;1587571;89;25740;-70
2022/04/05 04:41:24;;;;;;;20.90;17.82;;;;;;;2.79;91.27;98157.20;1578203;89;25626;-68
2022/04/05 04:43:51;;;;;;;26.37;20.80;;;;;;;2.83;91.01;98164.58;1589595;89;25676;-69
2022/04/05 04:46:18;;;;;;;24.52;19.25;;;;;;;2.87;91.01;98164.98;1588487;89;27354;-69
2022/04/05 04:48:45;;;;;;;25.77;21.35;;;;;;;2.89;90.16;98158.78;1595552;89;25412;-70
2022/04/05 04:51:12;;;;;;;25.52;21.95;;;;;;;2.94;91.38;98170.66;1590382;89;25436;-70
2022/04/05 04:53:40;;;;;;;26.27;20.15;;;;;;;2.97;90.06;98161.25;1601548;89;25798;-70
2022/04/05 04:56:06;;;;;;;24.55;19.42;;;;;;;3.00;89.95;98161.97;1596800;89;25837;-70
2022/04/05 04:58:33;;;;;;;24.00;20.20;;;;;;;3.02;90.21;98159.77;1588546;89;27375;-70
2022/04/05 05:00:59;;;;;;;24.47;19.95;;;;;;;3.04;90.22;98169.59;1549811;91;25751;-70
2022/04/05 05:03:25;;;;;;;22.45;19.40;;;;;;;3.09;90.29;98168.11;1530241;93;25881;-70
2022/04/05 05:05:53;;;;;;;22.70;19.15;;;;;;;3.12;90.42;98165.38;1589477;89;26147;-70
2022/04/05 05:08:20;;;;;;;21.93;18.73;;;;;;;3.16;89.64;98160.98;1537075;92;25506;-70
2022/04/05 05:10:46;;;;;;;24.60;20.23;;;;;;;3.20;90.20;98167.81;1530079;93;27415;-70
2022/04/05 05:13:12;;;;;;;22.62;19.17;;;;;;;3.25;89.60;98169.81;1590242;89;25435;-70
2022/04/05 05:15:39;;;;;;;24.40;19.67;;;;;;;3.29;90.10;98164.63;1589625;89;25799;-70
2022/04/05 05:18:06;;;;;;;24.47;19.65;;;;;;;3.34;89.82;98167.92;1589183;89;25776;-70
2022/04/05 05:20:32;;;;;;;21.25;18.40;;;;;;;3.40;89.08;98159.20;1564319;90;25931;-70
2022/04/05 05:22:58;;;;;;;22.75;18.07;;;;;;;3.48;89.51;98162.98;1578927;88;27315;-71
2022/04/05 05:25:25;;;;;;;20.77;17.90;;;;;;;3.49;89.00;98184.06;1550320;92;25632;-71
2022/04/05 05:27:51;;;;;;;23.70;19.27;;;;;;;3.54;88.62;98165.20;1550500;92;25503;-69
2022/04/05 05:30:17;;;;;;;21.75;18.65;;;;;;;3.60;88.80;98183.75;1552793;89;26206;-69
2022/04/05 05:32:47;;;;;;;20.88;18.67;;;;;;;3.65;88.33;98183.59;1586341;88;25919;-69
2022/04/05 05:35:19;;;;;;;21.30;17.57;;;;;;;3.70;88.64;98175.42;1589526;89;27438;-70
2022/04/05 05:37:48;;;;;;;19.85;17.20;;;;;;;3.73;87.87;98180.14;1590963;88;25918;-69
2022/04/05 05:40:15;;;;;;;18.87;16.57;;;;;;;3.80;87.62;98176.97;1592342;88;25713;-69
2022/04/05 05:43:02;;;;;;;22.13;17.20;;;;;;;3.90;87.60;98174.00;1577400;89;25683;-70
2022/04/05 05:45:32;;;;;;;18.40;15.63;;;;;;;4.00;87.77;98174.20;1576401;89;25700;-69
2022/04/05 05:48:02;;;;;;;18.17;14.58;;;;;;;4.18;87.76;98188.36;1572183;89;27358;-71
2022/04/05 05:50:29;;;;;;;19.37;14.47;;;;;;;4.27;86.15;98167.17;1576257;89;25703;-69
2022/04/05 05:52:59;;;;;;;17.27;14.38;;;;;;;4.32;85.72;98202.89;1582531;89;25855;-69
2022/04/05 05:55:26;;;;;;;18.62;14.63;;;;;;;4.37;85.34;98193.35;1572068;88;25641;-69
2022/04/05 05:57:52;;;;;;;17.23;15.05;;;;;;;4.39;84.80;98195.15;1576876;89;25652;-71
2022/04/05 06:00:21;;;;;;;17.45;15.08;;;;;;;4.41;84.84;98200.44;1572891;89;29544;-70
2022/04/05 06:02:54;;;;;;;17.82;14.60;;;;;;;4.42;84.54;98200.65;1576941;88;25878;-71
2022/04/05 06:05:21;;;;;;;17.75;15.15;;;;;;;4.42;84.14;98231.44;1580514;89;25635;-70
2022/04/05 06:07:48;;;;;;;15.00;13.43;;;;;;;4.42;83.88;98196.63;1586160;89;25874;-71
2022/04/05 06:10:15;;;;;;;15.45;13.85;;;;;;;4.43;83.62;98194.77;1578726;89;25363;-71
2022/04/05 06:12:45;;;;;;;13.85;12.47;;;;;;;4.40;83.73;98208.78;1576198;89;28081;-70
2022/04/05 06:15:14;;;;;;;15.00;12.70;;;;;;;4.37;83.81;98214.20;1558755;89;25877;-69
2022/04/05 06:17:44;;;;;;;13.75;12.30;;;;;;;4.32;83.68;98213.03;1550738;91;25660;-70
2022/04/05 06:20:14;;;;;;;12.15;10.85;;;;;;;4.25;83.96;98241.61;1545119;91;25734;-69
2022/04/05 06:22:48;;;;;;;11.90;10.40;;;;;;;4.19;83.83;98221.49;1556005;90;26424;-69
2022/04/05 06:25:21;;;;;;;13.20;9.73;;;;;;;4.12;83.63;98223.87;1588642;89;27510;-69
2022/04/05 06:27:48;;;;;;;10.70;9.43;;;;;;;4.04;84.44;98223.31;1572655;89;25688;-69
2022/04/05 06:30:17;;;;;;;10.05;8.95;;;;;;;3.93;84.21;98227.65;1598316;89;25764;-69
2022/04/05 06:32:44;;;;;;;13.90;10.08;;;;;;;3.84;84.32;98234.09;1587438;89;25808;-68
2022/04/05 06:35:12;;;;;;;9.20;7.72;;;;;;;3.75;84.47;98247.45;1585291;89;25467;-68
2022/04/05 06:37:43;;;;;;;8.53;6.87;;;;;;;3.64;84.43;98243.50;1578506;89;28051;-68
2022/04/05 06:40:09;;;;;;;7.83;7.03;;;;;;;3.56;85.29;98237.06;1579798;89;25610;-69
2022/04/05 06:42:41;;;;;;;10.60;8.35;;;;;;;3.53;85.23;98230.44;1598352;89;25535;-68
2022/04/05 06:45:06;;;;;;;11.22;8.80;;;;;;;3.59;85.81;98235.08;1599673;89;26694;-68
2022/04/05 06:47:33;;;;;;;10.13;8.95;;;;;;;3.73;86.55;98245.66;1590679;89;25607;-69
2022/04/05 06:49:59;;;;;;;9.50;8.33;;;;;;;3.82;86.96;98241.64;1589389;89;27337;-69
2022/04/05 06:52:25;;;;;;;9.45;8.33;;;;;;;3.85;86.49;98239.13;1596513;88;33140;-69
2022/04/05 06:54:51;;;;;;;10.50;9.05;;;;;;;3.95;87.06;98239.91;1593785;89;25653;-69
2022/04/05 06:57:18;;;;;;;13.15;9.03;;;;;;;4.35;87.85;98245.86;1593767;89;26293;-69
2022/04/05 06:59:44;;;;;;;11.40;9.00;;;;;;;4.59;87.04;98236.52;1593291;89;25943;-69
2022/04/05 07:02:11;;;;;;;11.97;9.08;;;;;;;4.70;86.44;98237.77;1591840;89;27380;-69
2022/04/05 07:04:37;;;;;;;10.65;9.20;;;;;;;4.85;87.05;98236.44;1587676;89;25498;-69
2022/04/05 07:07:04;;;;;;;12.40;8.88;;;;;;;4.96;86.35;98243.02;1593659;89;25873;-69
2022/04/05 07:09:30;;;;;;;10.85;9.63;;;;;;;5.03;85.24;98243.30;1589866;89;25722;-69
2022/04/05 07:11:56;;;;;;;12.85;10.23;;;;;;;5.07;84.44;98238.08;1591036;89;25492;-70
2022/04/05 07:14:22;;;;;;;11.15;9.95;;;;;;;5.07;84.20;98236.73;1587015;89;27352;-70
2022/04/05 07:16:49;;;;;;;11.33;10.03;;;;;;;5.04;83.98;98232.05;1593412;89;26071;-69
2022/04/05 07:19:15;;;;;;;11.28;10.13;;;;;;;5.00;83.15;98233.78;1589876;89;25688;-69
2022/04/05 07:21:42;;;;;;;12.33;9.78;;;;;;;4.92;82.78;98223.88;1585982;90;26589;-69
2022/04/05 07:24:08;;;;;;;11.90;10.05;;;;;;;4.85;82.55;98243.94;1593713;89;25662;-69
2022/04/05 07:26:34;;;;;;;11.45;10.00;;;;;;;4.89;82.57;98225.86;1593519;89;27334;-69
2022/04/05 07:29:00;;;;;;;10.48;9.33;;;;;;;4.96;82.25;98228.84;1592462;89;25526;-70
2022/04/05 07:31:27;;;;;;;9.43;8.43;;;;;;;5.06;81.87;98236.52;1602384;88;25652;-69
2022/04/05 07:33:54;;;;;;;9.83;8.63;;;;;;;5.15;80.32;98241.28;1580022;88;25592;-69
2022/04/05 07:36:20;;;;;;;9.58;8.23;;;;;;;5.27;78.78;98237.13;1585392;89;25875;-69
2022/04/05 07:38:46;;;;;;;8.95;7.90;;;;;;;5.36;78.72;98239.20;1602341;89;27372;-69
2022/04/05 07:41:13;;;;;;;8.35;7.55;;;;;;;5.46;79.38;98260.84;1590788;89;25487;-69
2022/04/05 07:43:39;;;;;;;8.78;7.40;;;;;;;5.78;79.11;98243.28;1591301;89;25676;-69
2022/04/05 07:46:06;;;;;;;8.45;7.17;;;;;;;6.28;80.58;98256.40;1589507;89;25873;-69
2022/04/05 07:48:32;;;;;;;10.00;6.87;;;;;;;6.37;79.22;98245.03;1587384;89;25785;-69
2022/04/05 07:51:00;;;;;;;7.62;6.92;;;;;;;6.35;78.08;98250.73;1602303;89;27374;-69
2022/04/05 07:53:26;;;;;;;10.72;9.23;;;;;;;6.29;76.36;98260.09;1590444;88;25980;-69
2022/04/05 07:55:54;;;;;;;8.00;7.10;;;;;;;6.19;76.75;98261.84;1586965;89;25912;-70
2022/04/05 07:58:21;;;;;;;6.28;5.25;;;;;;;6.07;75.83;98282.70;1585471;89;25612;-70
2022/04/05 08:00:48;;;;;;;6.70;5.05;;;;;;;5.87;74.20;98304.36;1590629;89;25655;-69
2022/04/05 08:03:15;;;;;;;5.85;4.97;;;;;;;5.64;74.17;98299.08;1581845;89;27332;-69
2022/04/05 08:05:42;;;;;;;6.15;4.28;;;;;;;5.49;75.26;98299.08;1593572;89;25786;-71
2022/04/05 08:08:08;;;;;;;5.80;4.50;;;;;;;5.40;75.08;98312.53;1586846;89;25464;-71
2022/04/05 08:10:36;;;;;;;3.98;3.58;;;;;;;5.35;73.63;98300.65;1591093;89;25615;-70
2022/04/05 08:13:03;;;;;;;5.03;3.65;;;;;;;5.47;74.32;98310.69;1593323;89;25522;-70
2022/04/05 08:15:29;;;;;;;5.85;3.75;;;;;;;5.79;72.84;98305.22;1579653;89;27306;-70
2022/04/05 08:17:57;;;;;;;4.70;3.85;;;;;;;6.39;73.72;98288.45;1582866;89;25610;-69
2022/04/05 08:20:25;;;;;;;6.30;3.62;;;;;;;7.05;70.17;98301.06;1602320;89;25956;-69
2022/04/05 08:22:51;;;;;;;6.10;4.53;;;;;;;7.58;68.61;98296.39;1582032;88;25731;-69
2022/04/05 08:25:19;;;;;;;5.80;3.80;;;;;;;7.84;67.95;98309.47;1602388;88;26259;-70
2022/04/05 08:27:48;;;;;;;6.47;3.60;;;;;;;7.83;66.36;98313.27;1589339;89;27440;-68
2022/04/05 08:30:17;;;;;;;11.70;3.58;;;;;;;8.13;65.01;98311.66;1586291;89;25847;-70
2022/04/05 08:32:46;;;;;;;9.48;4.92;;;;;;;8.41;63.09;98301.70;1605570;88;25765;-70
2022/04/05 08:35:16;;;;;;;6.37;3.80;;;;;;;9.09;67.19;98304.62;1596248;89;25842;-69
2022/04/05 08:37:44;;;;;;;4.25;3.50;;;;;;;9.89;65.25;98313.44;1587478;89;25538;-69
2022/04/05 08:40:15;;;;;;;5.90;2.95;;;;;;;10.35;62.19;98300.72;1594657;89;27446;-69
2022/04/05 08:42:50;;;;;;;7.50;3.17;;;;;;;10.84;61.40;98309.57;1587798;89;25877;-70
2022/04/05 08:45:19;;;;;;;4.90;2.80;;;;;;;11.04;61.15;98308.97;1585839;89;25691;-69
2022/04/05 08:47:58;;;;;;;5.13;2.93;;;;;;;11.58;59.38;98305.20;1587713;89;26214;-69
2022/04/05 08:50:29;;;;;;;5.70;2.70;;;;;;;12.21;58.91;98310.34;1589756;89;33062;-69
2022/04/05 08:53:00;;;;;;;2.98;1.65;;;;;;;12.36;52.36;98330.28;1601962;89;27918;-68
2022/04/05 08:55:28;;;;;;;5.08;1.82;;;;;;;12.17;50.66;98342.81;1584768;89;25597;-68
2022/04/05 08:57:58;;;;;;;3.77;2.27;;;;;;;11.49;50.71;98336.38;1592079;89;25854;-68
2022/04/05 09:00:24;;;;;;;;;;;;;;;11.19;53.28;98333.00;1595744;89;26363;-68
2022/04/05 09:02:57;;;;;;;3.83;2.12;;;;;;;11.46;52.43;98348.73;1577546;90;25483;-69
2022/04/05 09:05:34;;;;;;;3.83;1.87;;;;;;;10.95;48.54;98341.66;1581328;89;27364;-68
2022/04/05 09:08:25;;;;;;;6.33;2.87;;;;;;;10.78;50.83;98344.83;1600466;89;25669;-67
2022/04/05 09:11:05;;;;;;;6.45;1.98;;;;;;;11.23;52.69;98331.70;1593218;89;25789;-68
2022/04/05 09:13:31;;;;;;;;;;;;;;;12.08;50.95;98354.52;1579315;90;27839;-67
2022/04/05 09:16:04;;;;;;;4.37;2.33;;;;;;;12.37;50.23;98351.60;1591740;89;25750;-67
2022/04/05 09:18:45;;;;;;;3.30;1.90;;;;;;;12.54;48.14;98350.27;1587587;89;27002;-67
2022/04/05 09:21:16;;;;;;;3.42;1.67;;;;;;;12.35;43.83;98368.81;1587796;89;25811;-67
2022/04/05 09:23:44;;;;;;;5.35;2.27;;;;;;;12.11;42.33;98353.78;1593310;89;25882;-67
2022/04/05 09:26:14;;;;;;;3.85;1.80;;;;;;;12.36;46.09;98360.10;1589298;89;26450;-68
2022/04/05 09:28:47;;;;;;;4.87;1.90;;;;;;;12.47;44.89;98337.39;1591043;89;25659;-69
2022/04/05 09:31:36;;;;;;;5.10;1.60;;;;;;;12.25;42.01;98349.13;1582470;89;27365;-67
2022/04/05 09:34:24;;;;;;;6.05;1.80;;;;;;;12.24;41.13;98373.30;1568517;89;26597;-69
2022/04/05 09:37:02;;;;;;;4.10;2.05;;;;;;;12.17;43.56;98383.47;1586123;88;25938;-69
2022/04/05 09:39:27;;;;;;;4.78;1.55;;;;;;;12.47;45.91;98389.50;1588385;88;25781;-68
2022/04/05 09:42:25;;;;;;;5.37;1.80;;;;;;;12.56;41.43;98366.94;1583589;89;25716;-68
2022/04/05 09:45:25;;;;;;;3.95;1.67;;;;;;;12.39;42.84;98366.15;1627203;87;27333;-68
2022/04/05 09:47:40;;;;;;;7.40;2.20;;;;;;;12.83;44.71;98373.06;1615916;87;26091;-68
2022/04/05 09:50:29;;;;;;;5.20;1.82;;;;;;;12.70;44.46;98374.46;1631262;86;25941;-68
2022/04/05 09:53:01;;;;;;;4.35;2.08;;;;;;;12.30;40.02;98378.05;1560662;90;25811;-67
2022/04/05 09:55:30;;;;;;;4.33;2.35;;;;;;;12.18;42.92;98379.63;1583249;89;25602;-67
2022/04/05 09:57:55;;;;;;;3.87;2.20;;;;;;;11.73;43.80;98387.45;1581358;89;27360;-69
2022/04/05 10:00:23;;;;;;;3.10;2.05;;;;;;;11.43;43.72;98385.22;1578933;89;25595;-68
2022/04/05 10:03:10;;;;;;;6.58;2.37;;;;;;;11.11;43.83;98401.08;1589197;89;25502;-68
2022/04/05 10:05:38;;;;;;;4.78;2.75;;;;;;;10.70;44.19;98388.51;1582800;89;25693;-66
2022/04/05 10:08:07;;;;;;;6.03;2.30;;;;;;;10.39;45.37;98383.44;1582545;88;25536;-67
2022/04/05 10:10:33;;;;;;;8.28;1.90;;;;;;;10.13;45.29;98392.67;1639382;85;28154;-66
2022/04/05 10:12:59;;;;;;;4.00;1.75;;;;;;;9.84;44.72;98392.02;1655415;84;25790;-67
2022/04/05 10:15:28;;;;;;;3.90;1.57;;;;;;;10.09;45.25;98409.58;1666030;85;25729;-67
2022/04/05 10:17:59;;;;;;;3.58;1.70;;;;;;;10.18;44.35;98400.50;1652963;85;26954;-67
2022/04/05 10:20:28;;;;;;;8.05;1.67;;;;;;;10.08;43.45;98393.17;1658491;85;25917;-68
2022/04/05 10:23:00;;;;;;;3.72;1.60;;;;;;;9.91;43.41;98416.51;1648102;85;33212;-67
2022/04/05 10:25:25;;;;;;;3.52;2.10;;;;;;;9.81;44.21;98403.54;1657655;85;26052;-67
2022/04/05 10:27:52;;;;;;;4.45;2.10;;;;;;;9.67;44.85;98406.11;1653969;85;25872;-67
2022/04/05 10:30:39;;;;;;;6.95;2.10;;;;;;;9.51;45.05;98416.88;1681097;83;26672;-67
2022/04/05 10:33:11;;;;;;;7.25;2.90;;;;;;;9.37;45.74;98417.88;1693814;83;25912;-67
2022/04/05 10:35:46;;;;;;;10.25;3.17;;;;;;;9.25;46.07;98426.82;1693905;83;27331;-67
2022/04/05 10:38:18;;;;;;;8.25;2.40;;;;;;;9.13;46.32;98424.97;1689517;83;25998;-66
2022/04/05 10:41:12;;;;;;;5.33;2.00;;;;;;;8.99;45.91;98428.64;1686278;83;25853;-67
2022/04/05 10:43:39;;;;;;;5.42;2.12;;;;;;;8.87;45.46;98435.41;1688594;83;25653;-66
2022/04/05 10:46:06;;;;;;;6.47;2.22;;;;;;;8.68;45.38;98443.55;1688979;83;25686;-68
2022/04/05 10:48:32;;;;;;;6.92;2.83;;;;;;;8.57;46.41;98456.72;1688931;83;27998;-68
2022/04/05 10:51:09;;;;;;;3.27;1.85;;;;;;;9.04;46.70;98448.63;1691997;84;25672;-68
2022/04/05 10:54:17;;;;;;;7.58;2.08;;;;;;;9.53;45.55;98446.22;1688009;83;25822;-68
2022/04/05 10:56:14;;;;;;;5.92;1.85;;;;;;;9.57;45.18;98444.41;1594523;87;25938;-68
2022/04/05 10:59:07;;;;;;;7.72;2.27;;;;;;;9.50;45.54;98461.21;1639081;85;25851;-67
2022/04/05 11:01:43;;;;;;;4.58;1.77;;;;;;;9.82;44.73;98460.44;1635498;86;29512;-66
2022/04/05 11:04:21;;;;;;;3.87;1.65;;;;;;;11.03;44.05;98445.36;1636229;86;25879;-69
2022/04/05 11:07:10;;;;;;;4.12;1.60;;;;;;;10.78;42.41;98468.64;1640021;84;25475;-67
2022/04/05 11:09:50;;;;;;;4.03;1.50;;;;;;;10.34;43.37;98471.55;1663029;84;26434;-67
2022/04/05 11:12:30;;;;;;;7.95;2.37;;;;;;;10.52;43.20;98477.91;1667762;84;25863;-68
2022/04/05 11:15:05;;;;;;;6.62;2.33;;;;;;;11.09;43.40;98466.95;1691947;83;27437;-67
2022/04/05 11:17:33;;;;;;;3.67;1.82;;;;;;;11.10;42.89;98469.87;1658746;85;25513;-67
2022/04/05 11:20:03;;;;;;;7.12;1.90;;;;;;;11.16;42.51;98494.14;1647766;85;26284;-67
2022/04/05 11:22:36;;;;;;;4.47;1.72;;;;;;;10.95;41.82;98487.73;1636906;85;26214;-68
2022/04/05 11:25:14;;;;;;;3.67;1.75;;;;;;;10.81;41.90;98486.88;1638923;85;25465;-67
2022/04/05 11:27:48;;;;;;;5.58;1.55;;;;;;;10.69;42.81;98511.31;1642359;85;27935;-68
2022/04/05 11:30:30;;;;;;;9.58;1.90;;;;;;;10.55;42.43;98506.38;1635747;85;25755;-67
2022/04/05 11:33:32;;;;;;;11.55;1.95;;;;;;;10.51;42.77;98486.60;1689330;83;25889;-67
2022/04/05 11:36:07;;;;;;;6.12;1.82;;;;;;;10.53;42.57;98495.72;1693228;83;26159;-68
2022/04/05 11:38:41;;;;;;;5.12;1.72;;;;;;;10.21;42.55;98516.76;1693015;83;25884;-67
2022/04/05 11:41:12;;;;;;;3.17;1.42;;;;;;;10.24;40.86;98497.73;1689892;83;27942;-68